CheckWX is a tool to help pilots better visualize weather data.  It is not intended as a substitute for an official pre-flight weather briefing.

03:50:22 UTC

KFCM METAR
Flying Cloud Airport
Minneapolis, Minnesota, USA
Current

57 mins ago

KFCM 260253Z 27004KT 10SM CLR 15/08 A3000 RMK AO2 PRESRR SLP161 T01500083 53018
Observed
May-26 @ 02:53 UTC
Wind
  • 270° at 4 KTS
Visibility
10 SM
Flight Rules
VFR
Cloud Levels
  • Clear skies
Temperature
15°C / 59°F
Dewpoint
C / 46°F
Humidity
63%
Altimeter
30" Hg
Pressure
1015.92 hPa
Previous

2 hours ago

KFCM 260153Z 31004KT 10SM CLR 16/08 A2994 RMK AO2 SLP138 T01610078
Observed
May-26 @ 01:53 UTC
Wind
  • 310° at 4 KTS
Visibility
10 SM
Flight Rules
VFR
Cloud Levels
  • Clear skies
Temperature
16°C / 61°F
Dewpoint
C / 46°F
Humidity
59%
Altimeter
29.94" Hg
Pressure
1013.92 hPa
Previous

3 hours ago

KFCM 260053Z 31007KT 10SM CLR 18/08 A2995 RMK AO2 SLP141 T01830078
Observed
May-26 @ 00:53 UTC
Wind
  • 310° at 7 KTS
Visibility
10 SM
Flight Rules
VFR
Cloud Levels
  • Clear skies
Temperature
18°C / 64°F
Dewpoint
C / 46°F
Humidity
52%
Altimeter
29.95" Hg
Pressure
1014.22 hPa